Time;durP1;ratioP1;P1;durP2;ratioP2;P2;SDS_P1;SDS_P2;PMS_P1;PMS_P2;Temp;Humidity;BMP_temperature;BMP_pressure;BME280_temperature;BME280_humidity;BME280_pressure;Samples;Min_cycle;Max_cycle;Signal;HPM_P1;HPM_P2
2022/05/15 00:01:07;;;;;;;7.87;5.30;;;14.50;99.90;;;;;;5062746;28;20171;-83
2022/05/15 00:03:33;;;;;;;8.93;6.10;;;14.50;99.90;;;;;;5060914;28;20466;-83
2022/05/15 00:06:02;;;;;;;9.00;6.23;;;14.50;99.90;;;;;;5062893;28;20482;-83
2022/05/15 00:08:30;;;;;;;11.00;6.30;;;14.50;99.90;;;;;;5060986;28;20180;-81
2022/05/15 00:10:56;;;;;;;11.70;7.53;;;14.50;99.90;;;;;;5062309;28;20422;-84
2022/05/15 00:13:23;;;;;;;7.80;6.20;;;14.50;99.90;;;;;;5060483;28;20484;-82
2022/05/15 00:15:49;;;;;;;7.50;6.07;;;14.50;99.90;;;;;;5061548;28;20834;-83
2022/05/15 00:18:20;;;;;;;9.03;6.80;;;14.40;99.90;;;;;;5061304;28;20426;-84
2022/05/15 00:20:49;;;;;;;7.63;6.53;;;14.30;99.90;;;;;;5063699;28;20433;-82
2022/05/15 00:23:16;;;;;;;9.67;8.07;;;14.20;99.90;;;;;;5064395;28;20469;-83
2022/05/15 00:25:42;;;;;;;10.63;7.03;;;14.00;99.90;;;;;;5065265;28;20827;-83
2022/05/15 00:28:07;;;;;;;8.17;6.23;;;14.00;99.90;;;;;;5063831;28;20422;-84
2022/05/15 00:30:34;;;;;;;8.90;6.27;;;13.90;99.90;;;;;;5062323;28;20175;-82
2022/05/15 00:33:00;;;;;;;7.63;6.67;;;13.80;99.90;;;;;;5062938;28;20219;-82
2022/05/15 00:35:27;;;;;;;10.13;7.63;;;13.70;99.90;;;;;;5063866;28;20551;-83
2022/05/15 00:37:53;;;;;;;7.53;6.80;;;13.60;99.90;;;;;;5064543;28;20429;-82
2022/05/15 00:40:20;;;;;;;9.07;6.60;;;13.60;99.90;;;;;;5064562;28;20418;-84
2022/05/15 00:42:47;;;;;;;7.80;6.53;;;13.70;99.90;;;;;;5064504;28;20242;-84
2022/05/15 00:45:13;;;;;;;8.97;7.20;;;13.80;99.90;;;;;;5062092;28;20413;-83
2022/05/15 00:47:40;;;;;;;10.27;6.60;;;13.80;99.90;;;;;;5063949;28;20414;-83
2022/05/15 00:50:10;;;;;;;8.87;6.80;;;13.80;99.90;;;;;;5061478;28;20455;-81
2022/05/15 00:52:41;;;;;;;9.90;8.80;;;13.70;99.90;;;;;;5061338;28;20441;-83
2022/05/15 00:55:10;;;;;;;8.17;6.30;;;13.70;99.90;;;;;;5062841;28;20414;-82
2022/05/15 00:57:40;;;;;;;10.27;6.60;;;13.70;99.90;;;;;;5061679;28;20430;-82
2022/05/15 01:00:15;;;;;;;8.20;7.40;;;13.70;99.90;;;;;;5063178;28;20784;-83
2022/05/15 01:02:46;;;;;;;9.00;6.87;;;13.60;99.90;;;;;;5063083;28;21173;-82
2022/05/15 01:05:13;;;;;;;8.20;6.83;;;13.60;99.90;;;;;;5062495;28;20420;-81
2022/05/15 01:07:39;;;;;;;8.23;6.90;;;13.50;99.90;;;;;;5061286;28;20422;-83
2022/05/15 01:10:09;;;;;;;7.43;6.27;;;13.50;99.90;;;;;;5059793;28;20496;-83
2022/05/15 01:12:38;;;;;;;7.73;6.70;;;13.50;99.90;;;;;;5062002;28;20215;-83
2022/05/15 01:15:04;;;;;;;8.37;6.40;;;13.40;99.90;;;;;;5059653;28;20481;-82
2022/05/15 01:17:30;;;;;;;7.60;6.53;;;13.40;99.90;;;;;;5061447;28;20418;-81
2022/05/15 01:20:13;;;;;;;8.10;6.10;;;13.30;99.90;;;;;;5061467;28;20418;-82
2022/05/15 01:22:39;;;;;;;7.40;6.60;;;13.30;99.90;;;;;;5061319;28;20619;-82
2022/05/15 01:25:12;;;;;;;7.97;6.60;;;13.20;99.90;;;;;;5059165;28;20429;-82
2022/05/15 01:27:38;;;;;;;13.00;7.30;;;13.20;99.90;;;;;;5061854;28;20902;-82
2022/05/15 01:30:05;;;;;;;11.93;7.70;;;13.10;99.90;;;;;;5060558;28;20411;-82
2022/05/15 01:32:31;;;;;;;8.03;7.10;;;13.10;99.90;;;;;;5059906;28;20215;-82
2022/05/15 01:34:57;;;;;;;8.10;7.10;;;13.00;99.90;;;;;;5058635;28;20881;-81
2022/05/15 01:37:22;;;;;;;9.77;7.83;;;13.00;99.90;;;;;;5059707;28;20457;-82
2022/05/15 01:39:48;;;;;;;10.37;7.33;;;12.80;99.90;;;;;;5059963;28;20578;-82
2022/05/15 01:42:14;;;;;;;8.57;7.47;;;12.80;99.90;;;;;;5058191;28;20226;-82
2022/05/15 01:44:40;;;;;;;7.80;6.83;;;12.80;99.90;;;;;;5059939;28;20228;-81
2022/05/15 01:47:05;;;;;;;10.50;7.50;;;12.90;99.90;;;;;;5058044;28;20186;-81
2022/05/15 01:49:31;;;;;;;7.87;6.63;;;12.90;99.90;;;;;;5059562;28;20438;-81
2022/05/15 01:51:57;;;;;;;12.80;7.27;;;12.90;99.90;;;;;;5058972;28;20200;-81
2022/05/15 01:54:22;;;;;;;11.80;7.50;;;12.80;99.90;;;;;;5057282;28;20646;-83
2022/05/15 01:56:48;;;;;;;10.43;6.60;;;12.70;99.90;;;;;;5057228;28;20187;-81
2022/05/15 01:59:13;;;;;;;8.20;6.33;;;12.70;99.90;;;;;;5057263;28;20190;-81
2022/05/15 02:01:40;;;;;;;7.27;6.53;;;12.60;99.90;;;;;;5053869;28;20203;-81
2022/05/15 02:04:07;;;;;;;7.30;6.60;;;12.60;99.90;;;;;;5052959;28;20221;-81
2022/05/15 02:06:33;;;;;;;9.63;7.67;;;12.50;99.90;;;;;;5052678;28;20945;-81
2022/05/15 02:08:59;;;;;;;10.57;6.77;;;12.50;99.90;;;;;;5054102;28;20944;-81
2022/05/15 02:11:24;;;;;;;7.83;6.60;;;12.30;99.90;;;;;;5054014;28;20430;-81
2022/05/15 02:13:50;;;;;;;9.70;7.43;;;12.30;99.90;;;;;;5052898;28;20184;-81
2022/05/15 02:16:15;;;;;;;8.20;7.10;;;12.30;99.90;;;;;;5053756;28;20186;-81
2022/05/15 02:18:41;;;;;;;8.40;7.57;;;12.20;99.90;;;;;;5052974;28;20179;-81
2022/05/15 02:21:07;;;;;;;11.93;8.47;;;12.20;99.90;;;;;;5053534;28;20188;-82
2022/05/15 02:23:32;;;;;;;8.13;7.10;;;12.10;99.90;;;;;;5052631;28;20556;-81
2022/05/15 02:25:58;;;;;;;12.97;8.60;;;12.10;99.90;;;;;;5053619;28;20180;-81
2022/05/15 02:28:24;;;;;;;9.17;8.17;;;12.10;99.90;;;;;;5052788;28;20610;-81
2022/05/15 02:30:50;;;;;;;11.00;7.60;;;12.00;99.90;;;;;;5052172;28;20648;-80
2022/05/15 02:33:16;;;;;;;9.57;7.60;;;12.10;99.90;;;;;;5063582;22;20604;-80
2022/05/15 02:35:42;;;;;;;11.93;8.60;;;12.00;99.90;;;;;;5051788;28;20872;-81
2022/05/15 02:38:08;;;;;;;10.70;7.87;;;12.00;99.90;;;;;;5053201;28;20489;-82
2022/05/15 02:40:33;;;;;;;13.03;8.80;;;12.00;99.90;;;;;;5051534;28;20175;-81
2022/05/15 02:42:59;;;;;;;9.30;8.10;;;12.00;99.90;;;;;;5050855;28;20251;-81
2022/05/15 02:45:25;;;;;;;9.73;7.90;;;12.20;99.90;;;;;;5051812;28;20211;-81
2022/05/15 02:47:51;;;;;;;11.60;7.97;;;12.20;99.90;;;;;;5051674;28;20175;-81
2022/05/15 02:53:02;;;;;;;11.13;8.90;;;12.10;99.90;;;;;;5053099;28;20440;-81
2022/05/15 02:55:27;;;;;;;10.00;7.60;;;12.20;99.90;;;;;;5051621;28;20422;-82
2022/05/15 02:57:54;;;;;;;9.20;7.63;;;12.10;99.90;;;;;;5051566;28;20191;-81
2022/05/15 03:00:22;;;;;;;8.93;7.90;;;12.10;99.90;;;;;;5051379;28;20239;-81
2022/05/15 03:02:47;;;;;;;9.70;7.70;;;12.00;99.90;;;;;;5051341;28;20470;-81
2022/05/15 03:05:14;;;;;;;12.70;7.90;;;11.90;99.90;;;;;;5051368;28;20433;-82
2022/05/15 03:07:40;;;;;;;8.70;7.37;;;11.90;99.90;;;;;;5052765;28;20180;-82
2022/05/15 03:10:07;;;;;;;8.73;7.80;;;11.80;99.90;;;;;;5051174;28;20426;-81
2022/05/15 03:12:33;;;;;;;7.63;6.83;;;11.80;99.90;;;;;;5052517;28;20584;-82
2022/05/15 03:14:58;;;;;;;13.10;7.83;;;11.80;99.90;;;;;;5051219;28;20422;-81
2022/05/15 03:17:24;;;;;;;11.00;8.20;;;11.80;99.90;;;;;;5051289;28;20253;-81
2022/05/15 03:19:51;;;;;;;9.03;8.10;;;11.90;99.90;;;;;;5051050;28;20680;-81
2022/05/15 03:22:16;;;;;;;8.60;7.43;;;11.80;99.90;;;;;;5050873;28;20466;-82
2022/05/15 03:24:42;;;;;;;10.40;8.30;;;11.80;99.90;;;;;;5052237;28;20463;-81
2022/05/15 03:27:07;;;;;;;8.00;7.20;;;11.80;99.90;;;;;;5050973;28;20172;-81
2022/05/15 03:29:33;;;;;;;9.63;6.63;;;11.90;99.90;;;;;;5050868;28;20183;-81
2022/05/15 03:31:58;;;;;;;8.20;6.80;;;12.00;99.90;;;;;;5050476;28;20223;-81
2022/05/15 03:34:24;;;;;;;9.77;6.63;;;12.10;99.90;;;;;;5050999;28;20214;-81
2022/05/15 03:36:51;;;;;;;9.60;7.87;;;12.10;99.90;;;;;;5050607;28;20639;-81
2022/05/15 03:39:19;;;;;;;8.63;7.20;;;12.00;99.90;;;;;;5050745;28;20180;-82
2022/05/15 03:41:46;;;;;;;10.63;7.37;;;11.90;99.90;;;;;;5051383;28;20449;-81
2022/05/15 03:44:12;;;;;;;9.57;7.00;;;11.80;99.90;;;;;;5050763;28;20505;-82
2022/05/15 03:46:40;;;;;;;9.37;7.00;;;11.80;99.90;;;;;;5051762;28;20889;-81
2022/05/15 03:49:06;;;;;;;13.30;7.47;;;11.70;99.90;;;;;;5050787;28;20426;-81
2022/05/15 03:51:33;;;;;;;9.97;6.70;;;11.70;99.90;;;;;;5051519;28;20417;-83
2022/05/15 03:53:58;;;;;;;11.13;6.70;;;11.60;99.90;;;;;;5052642;28;20410;-82
2022/05/15 03:59:11;;;;;;;8.00;6.67;;;11.60;99.90;;;;;;5052891;28;20263;-82
2022/05/15 04:01:37;;;;;;;9.87;8.00;;;11.60;99.90;;;;;;5057684;28;20897;-81
2022/05/15 04:04:04;;;;;;;8.83;7.40;;;11.60;99.90;;;;;;5054454;28;20975;-84
2022/05/15 04:06:29;;;;;;;8.57;7.30;;;11.70;99.90;;;;;;5054452;28;20414;-83
2022/05/15 04:08:55;;;;;;;8.80;7.60;;;11.80;99.90;;;;;;5055323;28;20271;-82
2022/05/15 04:11:21;;;;;;;7.60;6.90;;;11.80;99.90;;;;;;5055893;28;20226;-82
2022/05/15 04:13:46;;;;;;;10.17;7.33;;;11.80;99.90;;;;;;5055352;28;20600;-83
2022/05/15 04:16:13;;;;;;;8.50;7.43;;;11.90;99.90;;;;;;5053540;28;20270;-83
2022/05/15 04:18:39;;;;;;;10.50;7.30;;;12.10;99.90;;;;;;5053710;28;20175;-81
2022/05/15 04:21:05;;;;;;;8.10;6.90;;;12.10;99.90;;;;;;5054981;28;20406;-82
2022/05/15 04:23:31;;;;;;;8.80;7.67;;;12.10;99.90;;;;;;5053601;28;20977;-81
2022/05/15 04:25:57;;;;;;;8.17;7.20;;;12.10;99.90;;;;;;5053629;28;20585;-83
2022/05/15 04:28:23;;;;;;;10.17;8.40;;;12.20;99.90;;;;;;5055626;28;20176;-82
2022/05/15 04:30:49;;;;;;;10.97;8.10;;;12.20;99.90;;;;;;5053457;28;20622;-82
2022/05/15 04:33:14;;;;;;;9.07;7.03;;;12.20;99.90;;;;;;5052816;28;20215;-84
2022/05/15 04:35:41;;;;;;;9.37;7.30;;;12.20;99.90;;;;;;5052923;28;20521;-83
2022/05/15 04:38:10;;;;;;;8.10;7.30;;;12.30;99.90;;;;;;5053549;28;20230;-83
2022/05/15 04:40:35;;;;;;;9.17;7.20;;;12.40;99.90;;;;;;5053448;28;20430;-82
2022/05/15 04:43:01;;;;;;;9.10;7.33;;;12.40;99.90;;;;;;5054320;28;21007;-83
2022/05/15 04:45:27;;;;;;;8.03;7.00;;;12.50;99.90;;;;;;5053297;28;20218;-84
2022/05/15 04:47:52;;;;;;;11.53;7.70;;;12.60;99.90;;;;;;5052847;28;20820;-82
2022/05/15 04:50:19;;;;;;;9.70;8.50;;;12.70;99.90;;;;;;5052833;28;20187;-82
2022/05/15 04:52:45;;;;;;;9.13;7.57;;;12.80;99.90;;;;;;5052736;28;20269;-81
2022/05/15 04:55:11;;;;;;;9.60;7.67;;;12.80;99.90;;;;;;5052854;28;20427;-83
2022/05/15 04:57:38;;;;;;;10.70;8.87;;;12.90;99.90;;;;;;5054362;28;20422;-83
2022/05/15 05:00:11;;;;;;;11.80;9.57;;;13.00;99.90;;;;;;5052875;28;20430;-82
2022/05/15 05:02:37;;;;;;;12.87;10.37;;;13.30;99.90;;;;;;5052556;28;21015;-83
2022/05/15 05:05:03;;;;;;;11.07;9.30;;;13.40;99.90;;;;;;5055706;28;20406;-83
2022/05/15 05:07:29;;;;;;;12.63;9.73;;;13.70;99.90;;;;;;5056868;28;20180;-82
2022/05/15 05:09:55;;;;;;;13.40;9.33;;;13.80;99.90;;;;;;5056694;28;20544;-82
2022/05/15 05:12:21;;;;;;;11.40;9.70;;;14.00;99.90;;;;;;5058050;28;20203;-81
2022/05/15 05:14:46;;;;;;;13.90;9.47;;;14.10;99.90;;;;;;5056400;28;20190;-84
2022/05/15 05:17:12;;;;;;;10.80;9.50;;;14.40;99.90;;;;;;5056537;28;20426;-83
2022/05/15 05:19:38;;;;;;;13.00;9.67;;;14.50;99.90;;;;;;5056998;28;20187;-83
2022/05/15 05:22:04;;;;;;;13.17;9.70;;;14.60;99.90;;;;;;5057861;28;20457;-84
2022/05/15 05:24:29;;;;;;;12.27;9.40;;;14.60;99.90;;;;;;5057543;28;20172;-84
2022/05/15 05:26:55;;;;;;;13.37;9.90;;;14.70;99.90;;;;;;5057075;28;20555;-81
2022/05/15 05:29:21;;;;;;;11.70;8.97;;;14.80;99.90;;;;;;5055989;28;20202;-83
2022/05/15 05:31:47;;;;;;;12.10;9.23;;;14.80;99.90;;;;;;5057295;28;20710;-82
2022/05/15 05:34:13;;;;;;;11.27;10.13;;;15.00;99.90;;;;;;5055769;28;20179;-82
2022/05/15 05:36:38;;;;;;;10.87;9.00;;;15.00;99.90;;;;;;5056796;28;20460;-83
2022/05/15 05:39:04;;;;;;;10.80;9.80;;;15.10;99.90;;;;;;5055748;28;20208;-84
2022/05/15 05:41:29;;;;;;;9.27;8.23;;;15.20;99.90;;;;;;5054718;28;20546;-82
2022/05/15 05:43:55;;;;;;;11.40;9.67;;;15.30;99.90;;;;;;5055217;28;20294;-83
2022/05/15 05:46:21;;;;;;;9.97;9.07;;;15.40;99.90;;;;;;5055065;28;20179;-83
2022/05/15 05:48:48;;;;;;;11.33;8.50;;;15.50;99.90;;;;;;5056073;28;20568;-83
2022/05/15 05:51:14;;;;;;;11.27;7.77;;;15.50;99.90;;;;;;5054623;28;20487;-82
2022/05/15 05:53:40;;;;;;;11.67;8.37;;;15.70;99.90;;;;;;5055176;28;20961;-82
2022/05/15 05:56:05;;;;;;;10.73;8.17;;;15.80;99.90;;;;;;5054606;28;20421;-82
2022/05/15 05:58:31;;;;;;;8.87;7.97;;;15.90;99.90;;;;;;5054587;28;20180;-82
2022/05/15 06:00:57;;;;;;;8.30;7.50;;;16.20;99.90;;;;;;5055670;28;20182;-84
2022/05/15 06:06:06;;;;;;;9.27;7.87;;;16.50;99.90;;;;;;5056142;28;20210;-81
2022/05/15 06:08:32;;;;;;;11.20;7.83;;;16.60;99.90;;;;;;5053799;28;20414;-82
2022/05/15 06:10:59;;;;;;;10.73;8.30;;;16.70;99.90;;;;;;5055223;28;20183;-82
2022/05/15 06:13:25;;;;;;;13.63;8.17;;;16.90;99.90;;;;;;5053781;28;20469;-82
2022/05/15 06:15:52;;;;;;;9.20;7.17;;;17.10;99.90;;;;;;5055316;28;20413;-83
2022/05/15 06:18:17;;;;;;;8.90;7.40;;;17.20;99.90;;;;;;5055146;28;20410;-83
2022/05/15 06:20:43;;;;;;;9.60;6.87;;;17.40;99.90;;;;;;5054743;28;20789;-83
2022/05/15 06:23:09;;;;;;;9.13;7.13;;;17.50;99.90;;;;;;5053347;28;20458;-82
2022/05/15 06:25:35;;;;;;;10.03;6.90;;;17.50;99.90;;;;;;5054845;28;20265;-82
2022/05/15 06:28:01;;;;;;;8.60;7.73;;;17.70;99.90;;;;;;5053682;28;20314;-82
2022/05/15 06:30:26;;;;;;;8.60;6.47;;;17.70;99.90;;;;;;5053232;28;20190;-82
2022/05/15 06:32:52;;;;;;;8.90;6.63;;;17.80;99.90;;;;;;5054585;28;20888;-82
2022/05/15 06:35:18;;;;;;;10.50;6.83;;;17.90;99.90;;;;;;5054370;28;20650;-82
2022/05/15 06:37:44;;;;;;;8.13;6.90;;;18.00;99.90;;;;;;5053152;28;20423;-83
2022/05/15 06:40:11;;;;;;;10.83;6.43;;;18.00;99.90;;;;;;5052606;28;20211;-83
2022/05/15 06:42:37;;;;;;;8.40;6.67;;;18.20;99.90;;;;;;5052783;28;20302;-81
2022/05/15 06:45:05;;;;;;;8.80;5.93;;;18.30;99.90;;;;;;5053133;28;20465;-83
2022/05/15 06:47:31;;;;;;;7.17;5.60;;;18.40;99.90;;;;;;5052407;28;20262;-83
2022/05/15 06:49:58;;;;;;;7.40;5.23;;;18.50;99.90;;;;;;5053330;28;20414;-83
2022/05/15 06:52:24;;;;;;;8.70;6.13;;;18.60;99.90;;;;;;5053079;28;20441;-82
2022/05/15 06:54:50;;;;;;;10.07;5.50;;;18.70;99.90;;;;;;5052014;28;20556;-83
2022/05/15 06:57:31;;;;;;;6.33;5.40;;;18.80;99.90;;;;;;5052068;28;20505;-83
2022/05/15 07:00:03;;;;;;;6.33;4.73;;;19.00;99.90;;;;;;5053422;28;20162;-82
2022/05/15 07:02:29;;;;;;;5.83;4.67;;;19.20;99.90;;;;;;5051376;28;20543;-82
2022/05/15 07:04:55;;;;;;;6.70;4.00;;;19.40;99.90;;;;;;5051655;28;20417;-81
2022/05/15 07:07:21;;;;;;;8.60;4.60;;;19.60;99.90;;;;;;5052854;28;20406;-82
2022/05/15 07:09:47;;;;;;;6.00;5.10;;;19.60;99.90;;;;;;5051681;28;20444;-83
2022/05/15 07:12:13;;;;;;;10.60;6.07;;;19.60;99.90;;;;;;5051119;28;20457;-82
2022/05/15 07:14:40;;;;;;;5.00;4.33;;;19.70;99.90;;;;;;5052377;28;20207;-83
2022/05/15 07:17:05;;;;;;;6.23;4.40;;;19.80;99.90;;;;;;5052277;28;20504;-82
2022/05/15 07:19:31;;;;;;;5.70;4.47;;;19.90;99.90;;;;;;5052466;28;20414;-82
2022/05/15 07:21:56;;;;;;;6.40;4.60;;;20.00;99.90;;;;;;5051121;28;20211;-82
2022/05/15 07:24:22;;;;;;;4.73;4.00;;;20.10;99.90;;;;;;5051784;28;20195;-83
2022/05/15 07:26:49;;;;;;;5.97;4.77;;;20.20;99.90;;;;;;5052546;28;20175;-83
2022/05/15 07:29:16;;;;;;;6.50;4.37;;;20.20;99.90;;;;;;5053279;28;20175;-83
2022/05/15 07:31:42;;;;;;;5.27;4.77;;;20.30;99.90;;;;;;5051158;28;20422;-82
2022/05/15 07:34:07;;;;;;;5.43;4.20;;;20.40;99.90;;;;;;5051198;28;20406;-83
2022/05/15 07:36:34;;;;;;;5.77;4.47;;;20.40;99.90;;;;;;5051129;28;20947;-82
2022/05/15 07:38:59;;;;;;;9.20;5.17;;;20.60;99.90;;;;;;5051250;28;20615;-83
2022/05/15 07:41:25;;;;;;;6.37;4.60;;;20.50;99.90;;;;;;5050811;28;20450;-82
2022/05/15 07:43:51;;;;;;;4.93;4.43;;;20.60;99.90;;;;;;5051117;28;20268;-82
2022/05/15 07:46:17;;;;;;;5.73;4.13;;;20.50;99.90;;;;;;5052489;28;20410;-82
2022/05/15 07:48:43;;;;;;;8.53;5.70;;;20.70;99.90;;;;;;5051982;28;20820;-83
2022/05/15 07:51:09;;;;;;;5.27;4.03;;;20.90;99.90;;;;;;5051772;28;20457;-82
2022/05/15 07:53:37;;;;;;;4.87;3.73;;;21.10;99.90;;;;;;5052032;28;20199;-82
2022/05/15 07:56:03;;;;;;;5.00;3.50;;;21.80;99.90;;;;;;5050856;28;20505;-82
2022/05/15 07:58:30;;;;;;;5.03;4.07;;;22.70;99.90;;;;;;5052204;28;20931;-81
2022/05/15 08:00:56;;;;;;;5.10;3.67;;;23.60;99.90;;;;;;5056944;28;20941;-82
2022/05/15 08:03:22;;;;;;;4.80;3.60;;;24.50;99.90;;;;;;5057003;28;20539;-81
2022/05/15 08:08:32;;;;;;;6.00;4.20;;;26.10;99.90;;;;;;5057171;28;20904;-82
2022/05/15 08:10:59;;;;;;;4.60;3.47;;;26.80;99.90;;;;;;5056463;28;20422;-82
2022/05/15 08:13:28;;;;;;;5.60;4.30;;;27.40;95.60;;;;;;5056798;28;20261;-83
2022/05/15 08:15:54;;;;;;;4.13;3.30;;;28.00;95.70;;;;;;5059818;28;20422;-82
2022/05/15 08:23:53;;;;;;;5.70;3.73;;;29.50;83.30;;;;;;5055333;28;20508;-83
2022/05/15 08:26:19;;;;;;;5.20;3.40;;;30.20;79.60;;;;;;5056287;28;20421;-80
2022/05/15 08:28:46;;;;;;;6.20;3.67;;;30.40;72.30;;;;;;5056292;28;20426;-80
2022/05/15 08:31:12;;;;;;;4.60;3.60;;;30.80;68.60;;;;;;5053611;28;20921;-80
2022/05/15 08:33:39;;;;;;;5.00;3.60;;;31.50;65.60;;;;;;5071458;22;20493;-85
2022/05/15 08:36:07;;;;;;;5.90;3.40;;;32.20;60.40;;;;;;5051566;28;20418;-85
2022/05/15 08:38:34;;;;;;;5.23;3.70;;;32.60;57.90;;;;;;5051523;28;20407;-84
2022/05/15 08:41:41;;;;;;;5.57;3.80;;;32.70;54.70;;;;;;5053895;28;20916;-84
2022/05/15 08:44:21;;;;;;;5.20;4.70;;;32.60;52.60;;;;;;5000208;28;20466;-85
2022/05/15 08:46:58;;;;;;;5.00;3.47;;;32.70;54.20;;;;;;5028707;28;20791;-85
2022/05/15 08:49:36;;;;;;;6.00;3.50;;;32.70;52.60;;;;;;5017196;28;20514;-85
2022/05/15 08:52:04;;;;;;;4.47;3.07;;;33.00;52.50;;;;;;5019077;28;20406;-84
2022/05/15 08:54:33;;;;;;;6.30;3.40;;;32.90;49.80;;;;;;5034668;28;20426;-85
2022/05/15 08:56:59;;;;;;;6.30;3.80;;;32.70;49.80;;;;;;5035158;28;20403;-85
2022/05/15 08:59:31;;;;;;;8.57;4.17;;;32.60;51.40;;;;;;5034942;28;20466;-84
2022/05/15 09:01:59;;;;;;;5.63;3.20;;;32.90;50.80;;;;;;5035041;28;20628;-86
2022/05/15 09:04:27;;;;;;;9.70;3.70;;;33.70;51.40;;;;;;5033788;28;20450;-86
2022/05/15 09:07:01;;;;;;;5.30;3.43;;;34.30;49.10;;;;;;5034803;28;20448;-86
2022/05/15 09:09:44;;;;;;;5.30;3.70;;;34.50;49.30;;;;;;5034952;28;20580;-86
2022/05/15 09:12:18;;;;;;;5.87;2.97;;;35.30;48.50;;;;;;5033296;28;20426;-86
2022/05/15 09:15:00;;;;;;;5.00;2.97;;;36.00;46.90;;;;;;5033651;28;20437;-86
2022/05/15 09:17:46;;;;;;;3.73;2.90;;;36.80;46.00;;;;;;5025250;28;20845;-86
2022/05/15 09:20:28;;;;;;;5.20;3.30;;;37.60;43.80;;;;;;5021586;28;20922;-86
2022/05/15 09:23:06;;;;;;;4.93;3.23;;;38.20;41.90;;;;;;5013497;28;20918;-87
2022/05/15 09:25:34;;;;;;;6.23;3.53;;;38.90;39.50;;;;;;5014868;28;20414;-87
2022/05/15 09:28:06;;;;;;;3.70;2.50;;;39.40;38.10;;;;;;5013578;28;20431;-86
2022/05/15 09:30:50;;;;;;;4.30;3.47;;;39.30;37.70;;;;;;5014511;28;20426;-87
2022/05/15 09:33:35;;;;;;;3.67;2.70;;;39.90;37.40;;;;;;5014654;28;20888;-86
2022/05/15 09:36:24;;;;;;;7.93;3.60;;;40.40;37.10;;;;;;5013250;28;20430;-86
2022/05/15 09:39:08;;;;;;;3.83;2.83;;;41.00;35.80;;;;;;5013548;28;20509;-87
2022/05/15 09:44:30;;;;;;;7.83;3.17;;;40.20;33.90;;;;;;5014567;28;20566;-86
2022/05/15 09:47:00;;;;;;;5.50;3.10;;;39.80;34.20;;;;;;5013086;28;20797;-87
2022/05/15 09:49:28;;;;;;;6.30;2.83;;;39.50;35.00;;;;;;5013271;28;20425;-87
2022/05/15 09:51:58;;;;;;;4.90;4.40;;;39.10;33.60;;;;;;5012173;28;20428;-87
2022/05/15 09:54:34;;;;;;;4.53;3.00;;;38.90;33.60;;;;;;5013229;28;20436;-87
2022/05/15 09:57:27;;;;;;;4.83;3.07;;;38.20;34.20;;;;;;5012853;28;20935;-87
2022/05/15 09:59:58;;;;;;;5.60;3.20;;;37.90;34.60;;;;;;5014330;28;20443;-87
2022/05/15 10:02:39;;;;;;;3.83;2.70;;;37.50;36.00;;;;;;5013841;28;20491;-86
2022/05/15 10:05:23;;;;;;;6.47;3.13;;;37.50;36.90;;;;;;5014214;28;20431;-85
2022/05/15 10:08:26;;;;;;;3.77;2.80;;;37.60;36.20;;;;;;5014003;28;21029;-87
2022/05/15 10:10:59;;;;;;;4.13;2.83;;;37.50;37.60;;;;;;5013974;28;20407;-86
2022/05/15 10:13:31;;;;;;;5.70;3.03;;;37.40;36.60;;;;;;5012655;28;20542;-83
2022/05/15 10:16:04;;;;;;;5.23;2.90;;;37.70;35.20;;;;;;5014255;28;20462;-86
2022/05/15 10:18:37;;;;;;;4.90;3.10;;;38.00;34.40;;;;;;5013372;28;20420;-86
2022/05/15 10:21:03;;;;;;;5.13;2.67;;;38.20;34.10;;;;;;5012726;28;20478;-86
2022/05/15 10:23:47;;;;;;;4.30;2.37;;;38.40;33.10;;;;;;5012592;28;20510;-86
2022/05/15 10:26:40;;;;;;;4.73;2.53;;;37.90;33.50;;;;;;5013937;28;20419;-86
2022/05/15 10:29:26;;;;;;;4.97;2.73;;;37.30;35.00;;;;;;5011787;28;20416;-86
2022/05/15 10:31:59;;;;;;;4.90;2.87;;;36.20;34.50;;;;;;5013778;28;20404;-86
2022/05/15 10:34:28;;;;;;;4.03;2.33;;;35.40;35.10;;;;;;5012352;28;20506;-85
2022/05/15 10:37:03;;;;;;;5.10;2.50;;;35.40;35.40;;;;;;5013674;28;20412;-84
2022/05/15 10:40:06;;;;;;;4.53;2.80;;;34.50;36.20;;;;;;5012419;28;20423;-86
2022/05/15 10:42:49;;;;;;;4.67;2.90;;;34.90;37.20;;;;;;5017567;28;20475;-86
2022/05/15 10:45:55;;;;;;;3.20;2.63;;;35.30;36.50;;;;;;5031800;28;20481;-86
2022/05/15 10:48:48;;;;;;;4.43;2.67;;;35.10;36.90;;;;;;5031859;28;20472;-86
2022/05/15 10:51:17;;;;;;;4.87;3.23;;;34.50;36.50;;;;;;5031754;28;20484;-86
2022/05/15 10:57:21;;;;;;;5.50;2.80;;;33.20;36.80;;;;;;5032895;28;20515;-85
2022/05/15 10:59:56;;;;;;;4.73;2.73;;;32.00;36.40;;;;;;5031740;28;20934;-85
2022/05/15 11:02:59;;;;;;;4.00;2.50;;;31.30;38.30;;;;;;5030865;28;20508;-85
2022/05/15 11:05:30;;;;;;;3.03;2.13;;;30.40;39.50;;;;;;5033078;28;20417;-85
2022/05/15 11:08:14;;;;;;;3.30;2.20;;;29.90;40.20;;;;;;5031923;28;20411;-85
2022/05/15 11:10:53;;;;;;;3.20;2.33;;;29.40;39.70;;;;;;5035417;28;20415;-85
2022/05/15 11:13:42;;;;;;;3.90;2.40;;;29.00;40.20;;;;;;5032786;28;20435;-84
2022/05/15 11:16:26;;;;;;;8.47;3.00;;;28.80;41.80;;;;;;5031687;28;20451;-85
2022/05/15 11:19:04;;;;;;;4.20;2.73;;;28.50;41.20;;;;;;5032139;28;20853;-85
2022/05/15 11:21:57;;;;;;;5.00;2.47;;;28.50;42.10;;;;;;5031426;28;20461;-85
2022/05/15 11:24:33;;;;;;;2.77;1.97;;;28.40;43.30;;;;;;4998098;28;20505;-85
2022/05/15 11:27:09;;;;;;;3.13;2.30;;;28.40;42.60;;;;;;5030781;28;20426;-85
2022/05/15 11:29:41;;;;;;;3.67;2.50;;;28.40;42.20;;;;;;5031469;28;20402;-85
2022/05/15 11:32:26;;;;;;;4.17;2.23;;;28.40;41.60;;;;;;5031840;28;20506;-85
2022/05/15 11:35:16;;;;;;;5.30;2.07;;;28.40;41.40;;;;;;5032059;28;20429;-85
2022/05/15 11:37:51;;;;;;;3.33;2.47;;;28.40;41.60;;;;;;5030617;28;20454;-85
2022/05/15 11:40:37;;;;;;;4.83;2.63;;;28.40;42.20;;;;;;5030554;28;20414;-85
2022/05/15 11:43:27;;;;;;;3.70;2.00;;;28.60;42.40;;;;;;5032022;28;20469;-85
2022/05/15 11:45:59;;;;;;;3.27;2.20;;;28.60;42.80;;;;;;5030396;28;20485;-84
2022/05/15 11:48:50;;;;;;;3.90;2.20;;;28.60;41.70;;;;;;5031949;28;20407;-85
2022/05/15 11:51:16;;;;;;;3.93;2.10;;;28.50;42.40;;;;;;5029639;28;20470;-85
2022/05/15 11:53:56;;;;;;;3.50;2.20;;;28.40;41.80;;;;;;5032042;28;20435;-85
2022/05/15 11:56:21;;;;;;;3.23;2.00;;;28.40;42.40;;;;;;5031956;28;20180;-85
2022/05/15 11:58:59;;;;;;;4.20;2.20;;;28.60;42.10;;;;;;5031160;28;20775;-85
2022/05/15 12:01:25;;;;;;;3.70;2.30;;;28.50;41.00;;;;;;5030572;28;20234;-85
2022/05/15 12:04:00;;;;;;;4.30;2.30;;;28.60;42.40;;;;;;5029092;28;20859;-85
2022/05/15 12:06:31;;;;;;;3.10;2.20;;;28.60;40.70;;;;;;5030084;28;20168;-85
2022/05/15 12:09:16;;;;;;;6.57;2.90;;;28.60;41.00;;;;;;5030520;28;20419;-86
2022/05/15 12:11:49;;;;;;;3.67;2.20;;;28.60;41.40;;;;;;5030154;28;20505;-85
2022/05/15 12:14:27;;;;;;;4.10;2.30;;;28.50;39.60;;;;;;5031711;28;20446;-85
2022/05/15 12:17:00;;;;;;;4.50;2.30;;;28.50;40.70;;;;;;5031114;28;20415;-85
2022/05/15 12:19:40;;;;;;;3.30;2.40;;;28.60;40.80;;;;;;5030706;28;20422;-85
2022/05/15 12:22:12;;;;;;;4.73;2.50;;;28.70;41.70;;;;;;5030160;28;20510;-85
2022/05/15 12:24:43;;;;;;;5.07;2.20;;;29.90;41.40;;;;;;5031152;28;20434;-85
2022/05/15 12:27:24;;;;;;;3.97;2.40;;;31.20;40.10;;;;;;5030694;28;20415;-84
2022/05/15 12:30:09;;;;;;;3.40;2.27;;;31.40;37.60;;;;;;5031090;28;20520;-85
2022/05/15 12:33:09;;;;;;;3.70;2.20;;;31.10;39.30;;;;;;5031689;28;20512;-85
2022/05/15 12:35:38;;;;;;;5.10;2.50;;;30.90;40.60;;;;;;5018562;28;20488;-85
2022/05/15 12:38:14;;;;;;;5.07;2.00;;;30.40;39.10;;;;;;5030554;28;20430;-85
2022/05/15 12:40:54;;;;;;;3.70;2.30;;;30.10;39.60;;;;;;5031173;28;20510;-84
2022/05/15 12:43:42;;;;;;;4.37;2.30;;;29.90;39.20;;;;;;5029395;28;20985;-85
2022/05/15 12:46:07;;;;;;;2.83;1.80;;;29.70;39.00;;;;;;5019435;28;20423;-84
2022/05/15 12:48:38;;;;;;;3.43;2.30;;;29.60;38.80;;;;;;5018870;28;20946;-83
2022/05/15 12:51:07;;;;;;;3.80;2.23;;;29.50;42.70;;;;;;5024115;28;20192;-83
2022/05/15 12:53:43;;;;;;;3.13;2.20;;;29.40;40.50;;;;;;5033637;28;20448;-84
2022/05/15 12:56:11;;;;;;;3.23;2.20;;;29.30;41.10;;;;;;5036621;28;20423;-82
2022/05/15 12:58:37;;;;;;;3.90;2.20;;;29.20;40.80;;;;;;5035635;28;20414;-83
2022/05/15 13:01:04;;;;;;;4.07;1.73;;;29.20;41.30;;;;;;5034424;28;20413;-83
2022/05/15 13:03:30;;;;;;;3.40;1.83;;;29.20;40.70;;;;;;5035704;28;20553;-83
2022/05/15 13:06:02;;;;;;;4.00;2.20;;;29.10;39.50;;;;;;5035155;28;20473;-82
2022/05/15 13:08:51;;;;;;;6.20;2.20;;;29.00;41.00;;;;;;5035315;28;20414;-83
2022/05/15 13:11:26;;;;;;;4.03;2.20;;;28.80;40.50;;;;;;5029140;28;21140;-83
2022/05/15 13:13:54;;;;;;;4.07;2.30;;;28.70;40.80;;;;;;5033923;28;20458;-83
2022/05/15 13:16:22;;;;;;;3.47;2.00;;;28.70;41.20;;;;;;5030289;28;20422;-82
2022/05/15 13:18:50;;;;;;;3.90;2.20;;;28.70;39.20;;;;;;5015435;28;20465;-84
2022/05/15 13:21:38;;;;;;;5.70;2.37;;;28.70;41.20;;;;;;5015758;28;20463;-84
2022/05/15 13:24:06;;;;;;;4.40;2.43;;;28.60;40.60;;;;;;5016104;28;20554;-83